sensor_id;sensor_type;location;lat;lon;timestamp;temperature;humidity
54272;DHT22;40184;53.362;5.216;2022-09-09T00:03:49;17.50;99.90
54272;DHT22;40184;53.362;5.216;2022-09-09T00:06:32;17.10;99.90
54272;DHT22;40184;53.362;5.216;2022-09-09T00:11:54;17.50;99.90
54272;DHT22;40184;53.362;5.216;2022-09-09T00:14:39;17.40;99.90
54272;DHT22;40184;53.362;5.216;2022-09-09T00:17:14;17.10;99.90
54272;DHT22;40184;53.362;5.216;2022-09-09T00:20:12;17.50;99.90
54272;DHT22;40184;53.362;5.216;2022-09-09T00:22:41;17.10;99.90
54272;DHT22;40184;53.362;5.216;2022-09-09T00:25:15;17.20;99.90
54272;DHT22;40184;53.362;5.216;2022-09-09T00:27:48;17.40;99.90
54272;DHT22;40184;53.362;5.216;2022-09-09T00:30:25;17.50;99.90
54272;DHT22;40184;53.362;5.216;2022-09-09T00:32:59;17.60;99.90
54272;DHT22;40184;53.362;5.216;2022-09-09T00:35:32;17.30;99.90
54272;DHT22;40184;53.362;5.216;2022-09-09T00:40:55;17.60;99.90
54272;DHT22;40184;53.362;5.216;2022-09-09T00:46:20;17.60;99.90
54272;DHT22;40184;53.362;5.216;2022-09-09T00:51:28;17.20;99.90
54272;DHT22;40184;53.362;5.216;2022-09-09T01:08:01;17.20;99.90
54272;DHT22;40184;53.362;5.216;2022-09-09T01:10:51;17.30;99.90
54272;DHT22;40184;53.362;5.216;2022-09-09T01:13:30;17.70;99.90
54272;DHT22;40184;53.362;5.216;2022-09-09T01:16:01;17.60;99.90
54272;DHT22;40184;53.362;5.216;2022-09-09T01:18:35;17.20;99.90
54272;DHT22;40184;53.362;5.216;2022-09-09T01:23:46;17.50;99.90
54272;DHT22;40184;53.362;5.216;2022-09-09T01:26:40;17.00;99.90
54272;DHT22;40184;53.362;5.216;2022-09-09T01:29:09;17.50;99.90
54272;DHT22;40184;53.362;5.216;2022-09-09T01:31:51;17.10;99.90
54272;DHT22;40184;53.362;5.216;2022-09-09T01:34:17;17.20;99.90
54272;DHT22;40184;53.362;5.216;2022-09-09T01:37:02;17.40;99.90
54272;DHT22;40184;53.362;5.216;2022-09-09T01:39:51;17.50;99.90
54272;DHT22;40184;53.362;5.216;2022-09-09T01:42:17;17.20;99.90
54272;DHT22;40184;53.362;5.216;2022-09-09T01:44:43;17.50;99.90
54272;DHT22;40184;53.362;5.216;2022-09-09T01:47:08;17.30;99.90
54272;DHT22;40184;53.362;5.216;2022-09-09T01:49:34;17.30;99.90
54272;DHT22;40184;53.362;5.216;2022-09-09T01:52:00;17.60;99.90
54272;DHT22;40184;53.362;5.216;2022-09-09T01:54:29;17.60;99.90
54272;DHT22;40184;53.362;5.216;2022-09-09T02:02:10;17.60;99.90
54272;DHT22;40184;53.362;5.216;2022-09-09T02:05:03;17.50;99.90
54272;DHT22;40184;53.362;5.216;2022-09-09T02:07:48;17.20;99.90
54272;DHT22;40184;53.362;5.216;2022-09-09T02:10:16;17.70;99.90
54272;DHT22;40184;53.362;5.216;2022-09-09T02:12:51;17.70;99.90
54272;DHT22;40184;53.362;5.216;2022-09-09T02:15:42;17.40;99.90
54272;DHT22;40184;53.362;5.216;2022-09-09T02:18:11;17.30;99.90
54272;DHT22;40184;53.362;5.216;2022-09-09T02:20:38;17.60;99.90
54272;DHT22;40184;53.362;5.216;2022-09-09T02:23:06;17.50;99.90
54272;DHT22;40184;53.362;5.216;2022-09-09T02:25:35;17.30;99.90
54272;DHT22;40184;53.362;5.216;2022-09-09T02:28:02;17.80;99.90
54272;DHT22;40184;53.362;5.216;2022-09-09T02:30:30;17.60;99.90
54272;DHT22;40184;53.362;5.216;2022-09-09T02:32:58;17.60;99.90
54272;DHT22;40184;53.362;5.216;2022-09-09T02:35:25;17.70;99.90
54272;DHT22;40184;53.362;5.216;2022-09-09T02:37:54;17.70;99.90
54272;DHT22;40184;53.362;5.216;2022-09-09T02:40:22;17.70;99.90
54272;DHT22;40184;53.362;5.216;2022-09-09T02:42:48;17.40;99.90
54272;DHT22;40184;53.362;5.216;2022-09-09T02:45:27;17.20;99.90
54272;DHT22;40184;53.362;5.216;2022-09-09T02:48:35;17.60;99.90
54272;DHT22;40184;53.362;5.216;2022-09-09T02:51:05;17.20;99.90
54272;DHT22;40184;53.362;5.216;2022-09-09T02:56:17;17.30;99.90
54272;DHT22;40184;53.362;5.216;2022-09-09T02:58:45;17.00;99.90
54272;DHT22;40184;53.362;5.216;2022-09-09T03:01:11;17.00;99.90
54272;DHT22;40184;53.362;5.216;2022-09-09T03:03:38;17.50;99.90
54272;DHT22;40184;53.362;5.216;2022-09-09T03:06:03;17.30;99.90
54272;DHT22;40184;53.362;5.216;2022-09-09T03:08:31;17.40;99.90
54272;DHT22;40184;53.362;5.216;2022-09-09T03:10:59;16.90;99.90
54272;DHT22;40184;53.362;5.216;2022-09-09T03:13:26;17.00;99.90
54272;DHT22;40184;53.362;5.216;2022-09-09T03:15:52;16.90;99.90
54272;DHT22;40184;53.362;5.216;2022-09-09T03:18:18;17.40;99.90
54272;DHT22;40184;53.362;5.216;2022-09-09T03:20:43;17.10;99.90
54272;DHT22;40184;53.362;5.216;2022-09-09T03:23:09;17.00;99.90
54272;DHT22;40184;53.362;5.216;2022-09-09T03:25:35;17.30;99.90
54272;DHT22;40184;53.362;5.216;2022-09-09T03:28:01;17.30;99.90
54272;DHT22;40184;53.362;5.216;2022-09-09T03:30:27;17.00;99.90
54272;DHT22;40184;53.362;5.216;2022-09-09T03:32:53;17.30;99.90
54272;DHT22;40184;53.362;5.216;2022-09-09T03:35:20;16.90;99.90
54272;DHT22;40184;53.362;5.216;2022-09-09T03:37:46;17.30;99.90
54272;DHT22;40184;53.362;5.216;2022-09-09T03:40:13;17.20;99.90
54272;DHT22;40184;53.362;5.216;2022-09-09T03:42:39;16.80;99.90
54272;DHT22;40184;53.362;5.216;2022-09-09T03:45:07;16.70;99.90
54272;DHT22;40184;53.362;5.216;2022-09-09T03:47:34;17.10;99.90
54272;DHT22;40184;53.362;5.216;2022-09-09T03:50:00;16.90;99.90
54272;DHT22;40184;53.362;5.216;2022-09-09T03:52:26;17.10;99.90
54272;DHT22;40184;53.362;5.216;2022-09-09T03:54:53;17.20;99.90
54272;DHT22;40184;53.362;5.216;2022-09-09T03:57:19;16.70;99.90
54272;DHT22;40184;53.362;5.216;2022-09-09T03:59:45;16.80;99.90
54272;DHT22;40184;53.362;5.216;2022-09-09T04:02:11;16.90;99.90
54272;DHT22;40184;53.362;5.216;2022-09-09T04:04:36;16.90;99.90
54272;DHT22;40184;53.362;5.216;2022-09-09T04:07:02;17.10;99.90
54272;DHT22;40184;53.362;5.216;2022-09-09T04:09:28;16.80;99.90
54272;DHT22;40184;53.362;5.216;2022-09-09T04:11:54;16.90;99.90
54272;DHT22;40184;53.362;5.216;2022-09-09T04:14:20;17.10;99.90
54272;DHT22;40184;53.362;5.216;2022-09-09T04:16:46;16.90;99.90
54272;DHT22;40184;53.362;5.216;2022-09-09T04:19:12;17.00;99.90
54272;DHT22;40184;53.362;5.216;2022-09-09T04:21:41;17.20;99.90
54272;DHT22;40184;53.362;5.216;2022-09-09T04:24:07;17.20;99.90
54272;DHT22;40184;53.362;5.216;2022-09-09T04:26:34;16.90;99.90
54272;DHT22;40184;53.362;5.216;2022-09-09T04:29:00;16.90;99.90
54272;DHT22;40184;53.362;5.216;2022-09-09T04:31:26;17.20;99.90
54272;DHT22;40184;53.362;5.216;2022-09-09T04:33:52;17.00;99.90
54272;DHT22;40184;53.362;5.216;2022-09-09T04:36:18;17.00;99.90
54272;DHT22;40184;53.362;5.216;2022-09-09T04:38:47;16.70;99.90
54272;DHT22;40184;53.362;5.216;2022-09-09T04:41:14;16.70;99.90
54272;DHT22;40184;53.362;5.216;2022-09-09T04:43:40;17.00;99.90
54272;DHT22;40184;53.362;5.216;2022-09-09T04:46:05;17.20;99.90
54272;DHT22;40184;53.362;5.216;2022-09-09T04:48:31;16.90;99.90
54272;DHT22;40184;53.362;5.216;2022-09-09T04:51:02;16.90;99.90
54272;DHT22;40184;53.362;5.216;2022-09-09T04:53:29;17.20;99.90
54272;DHT22;40184;53.362;5.216;2022-09-09T04:56:14;17.10;99.90
54272;DHT22;40184;53.362;5.216;2022-09-09T04:58:41;17.00;99.90
54272;DHT22;40184;53.362;5.216;2022-09-09T05:01:16;17.20;99.90
54272;DHT22;40184;53.362;5.216;2022-09-09T05:03:42;17.00;99.90
54272;DHT22;40184;53.362;5.216;2022-09-09T05:06:12;17.00;99.90
54272;DHT22;40184;53.362;5.216;2022-09-09T05:08:39;16.70;99.90
54272;DHT22;40184;53.362;5.216;2022-09-09T05:11:21;16.90;99.90
54272;DHT22;40184;53.362;5.216;2022-09-09T05:13:51;17.20;99.90
54272;DHT22;40184;53.362;5.216;2022-09-09T05:16:18;17.10;99.90
54272;DHT22;40184;53.362;5.216;2022-09-09T05:18:44;16.80;99.90
54272;DHT22;40184;53.362;5.216;2022-09-09T05:21:11;17.00;99.90
54272;DHT22;40184;53.362;5.216;2022-09-09T05:23:38;16.90;99.90
54272;DHT22;40184;53.362;5.216;2022-09-09T05:26:04;17.00;99.90
54272;DHT22;40184;53.362;5.216;2022-09-09T05:28:33;17.30;99.90
54272;DHT22;40184;53.362;5.216;2022-09-09T05:31:03;16.90;99.90
54272;DHT22;40184;53.362;5.216;2022-09-09T05:33:31;17.10;99.90
54272;DHT22;40184;53.362;5.216;2022-09-09T05:36:11;17.00;99.90
54272;DHT22;40184;53.362;5.216;2022-09-09T05:38:39;17.40;99.90
54272;DHT22;40184;53.362;5.216;2022-09-09T05:41:06;16.90;99.90
54272;DHT22;40184;53.362;5.216;2022-09-09T05:43:32;17.30;99.90
54272;DHT22;40184;53.362;5.216;2022-09-09T05:46:06;17.30;99.90
54272;DHT22;40184;53.362;5.216;2022-09-09T05:48:33;16.90;99.90
54272;DHT22;40184;53.362;5.216;2022-09-09T05:51:00;16.90;99.90
54272;DHT22;40184;53.362;5.216;2022-09-09T05:53:29;17.20;99.90
54272;DHT22;40184;53.362;5.216;2022-09-09T05:56:10;17.40;99.90
54272;DHT22;40184;53.362;5.216;2022-09-09T05:58:37;17.10;99.90
54272;DHT22;40184;53.362;5.216;2022-09-09T06:01:05;17.20;99.90
54272;DHT22;40184;53.362;5.216;2022-09-09T06:03:34;17.20;99.90
54272;DHT22;40184;53.362;5.216;2022-09-09T06:06:03;17.70;99.90
54272;DHT22;40184;53.362;5.216;2022-09-09T06:08:33;17.80;99.90
54272;DHT22;40184;53.362;5.216;2022-09-09T06:11:08;17.50;99.90
54272;DHT22;40184;53.362;5.216;2022-09-09T06:13:34;17.50;99.90
54272;DHT22;40184;53.362;5.216;2022-09-09T06:16:02;17.90;99.90
54272;DHT22;40184;53.362;5.216;2022-09-09T06:18:28;17.50;99.90
54272;DHT22;40184;53.362;5.216;2022-09-09T06:20:59;17.80;99.90
54272;DHT22;40184;53.362;5.216;2022-09-09T06:23:26;17.60;99.90
54272;DHT22;40184;53.362;5.216;2022-09-09T06:26:13;17.90;99.90
54272;DHT22;40184;53.362;5.216;2022-09-09T06:28:39;17.80;99.90
54272;DHT22;40184;53.362;5.216;2022-09-09T06:31:08;17.80;99.90
54272;DHT22;40184;53.362;5.216;2022-09-09T06:33:39;17.40;99.90
54272;DHT22;40184;53.362;5.216;2022-09-09T06:36:07;17.50;99.90
54272;DHT22;40184;53.362;5.216;2022-09-09T06:38:35;17.80;99.90
54272;DHT22;40184;53.362;5.216;2022-09-09T06:41:01;17.70;99.90
54272;DHT22;40184;53.362;5.216;2022-09-09T06:43:27;17.30;99.90
54272;DHT22;40184;53.362;5.216;2022-09-09T06:45:58;17.30;99.90
54272;DHT22;40184;53.362;5.216;2022-09-09T06:48:25;17.50;99.90
54272;DHT22;40184;53.362;5.216;2022-09-09T06:51:08;17.30;99.90
54272;DHT22;40184;53.362;5.216;2022-09-09T06:53:35;17.60;99.90
54272;DHT22;40184;53.362;5.216;2022-09-09T06:56:02;17.60;99.90
54272;DHT22;40184;53.362;5.216;2022-09-09T06:58:28;17.40;99.90
54272;DHT22;40184;53.362;5.216;2022-09-09T07:01:05;17.30;99.90
54272;DHT22;40184;53.362;5.216;2022-09-09T07:03:31;17.60;99.90
54272;DHT22;40184;53.362;5.216;2022-09-09T07:05:57;17.20;99.90
54272;DHT22;40184;53.362;5.216;2022-09-09T07:08:23;17.00;99.90
54272;DHT22;40184;53.362;5.216;2022-09-09T07:10:51;17.30;99.90
54272;DHT22;40184;53.362;5.216;2022-09-09T07:13:28;17.00;99.90
54272;DHT22;40184;53.362;5.216;2022-09-09T07:15:53;17.30;99.90
54272;DHT22;40184;53.362;5.216;2022-09-09T07:18:20;17.30;99.90
54272;DHT22;40184;53.362;5.216;2022-09-09T07:20:55;17.30;99.90
54272;DHT22;40184;53.362;5.216;2022-09-09T07:23:22;16.90;99.90
54272;DHT22;40184;53.362;5.216;2022-09-09T07:25:48;17.10;99.90
54272;DHT22;40184;53.362;5.216;2022-09-09T07:28:15;17.30;99.90
54272;DHT22;40184;53.362;5.216;2022-09-09T07:30:41;17.00;99.90
54272;DHT22;40184;53.362;5.216;2022-09-09T07:33:09;17.30;99.90
54272;DHT22;40184;53.362;5.216;2022-09-09T07:35:35;17.00;99.90
54272;DHT22;40184;53.362;5.216;2022-09-09T07:38:02;17.40;99.90
54272;DHT22;40184;53.362;5.216;2022-09-09T07:40:28;17.30;99.90
54272;DHT22;40184;53.362;5.216;2022-09-09T07:42:55;17.50;99.90
54272;DHT22;40184;53.362;5.216;2022-09-09T07:45:21;17.70;99.90
54272;DHT22;40184;53.362;5.216;2022-09-09T07:47:47;17.60;99.90
54272;DHT22;40184;53.362;5.216;2022-09-09T07:50:14;17.60;99.90
54272;DHT22;40184;53.362;5.216;2022-09-09T07:52:40;17.70;99.90
54272;DHT22;40184;53.362;5.216;2022-09-09T07:55:06;17.40;99.90
54272;DHT22;40184;53.362;5.216;2022-09-09T07:57:32;17.80;99.90
54272;DHT22;40184;53.362;5.216;2022-09-09T07:59:57;17.90;99.90
54272;DHT22;40184;53.362;5.216;2022-09-09T08:02:24;17.60;99.90
54272;DHT22;40184;53.362;5.216;2022-09-09T08:04:50;18.00;99.90
54272;DHT22;40184;53.362;5.216;2022-09-09T08:07:17;18.30;99.90
54272;DHT22;40184;53.362;5.216;2022-09-09T08:09:43;18.20;99.90
54272;DHT22;40184;53.362;5.216;2022-09-09T08:12:09;18.00;99.90
54272;DHT22;40184;53.362;5.216;2022-09-09T08:14:36;18.10;99.90
54272;DHT22;40184;53.362;5.216;2022-09-09T08:17:02;18.30;99.90
54272;DHT22;40184;53.362;5.216;2022-09-09T08:19:27;18.30;99.90
54272;DHT22;40184;53.362;5.216;2022-09-09T08:21:55;18.10;99.90
54272;DHT22;40184;53.362;5.216;2022-09-09T08:24:20;18.20;99.90
54272;DHT22;40184;53.362;5.216;2022-09-09T08:26:47;18.60;99.90
54272;DHT22;40184;53.362;5.216;2022-09-09T08:29:16;18.20;99.90
54272;DHT22;40184;53.362;5.216;2022-09-09T08:31:47;18.40;99.90
54272;DHT22;40184;53.362;5.216;2022-09-09T08:34:14;18.20;99.90
54272;DHT22;40184;53.362;5.216;2022-09-09T08:36:44;18.40;99.90
54272;DHT22;40184;53.362;5.216;2022-09-09T08:39:18;18.20;99.90
54272;DHT22;40184;53.362;5.216;2022-09-09T08:50:22;18.10;99.90
54272;DHT22;40184;53.362;5.216;2022-09-09T08:58:21;18.50;99.90
54272;DHT22;40184;53.362;5.216;2022-09-09T09:01:26;18.60;99.90
54272;DHT22;40184;53.362;5.216;2022-09-09T09:04:06;18.60;99.90
54272;DHT22;40184;53.362;5.216;2022-09-09T09:12:23;19.20;99.90
54272;DHT22;40184;53.362;5.216;2022-09-09T09:14:50;19.40;99.90
54272;DHT22;40184;53.362;5.216;2022-09-09T09:17:20;19.40;99.90
54272;DHT22;40184;53.362;5.216;2022-09-09T09:19:47;19.40;99.90
54272;DHT22;40184;53.362;5.216;2022-09-09T09:27:31;19.30;99.90
54272;DHT22;40184;53.362;5.216;2022-09-09T09:29:59;19.60;99.90
54272;DHT22;40184;53.362;5.216;2022-09-09T09:32:29;19.60;99.90
54272;DHT22;40184;53.362;5.216;2022-09-09T09:34:58;19.70;99.90
54272;DHT22;40184;53.362;5.216;2022-09-09T09:37:29;19.90;99.90
54272;DHT22;40184;53.362;5.216;2022-09-09T09:39:55;19.80;99.90
54272;DHT22;40184;53.362;5.216;2022-09-09T09:42:21;20.10;99.90
54272;DHT22;40184;53.362;5.216;2022-09-09T09:44:47;20.10;99.90
54272;DHT22;40184;53.362;5.216;2022-09-09T09:47:14;20.00;99.90
54272;DHT22;40184;53.362;5.216;2022-09-09T09:49:58;19.70;99.90
54272;DHT22;40184;53.362;5.216;2022-09-09T09:52:27;19.90;99.90
54272;DHT22;40184;53.362;5.216;2022-09-09T09:54:54;20.50;99.90
54272;DHT22;40184;53.362;5.216;2022-09-09T09:57:29;20.60;99.90
54272;DHT22;40184;53.362;5.216;2022-09-09T10:00:14;20.50;99.90
54272;DHT22;40184;53.362;5.216;2022-09-09T10:02:41;20.50;99.90
54272;DHT22;40184;53.362;5.216;2022-09-09T10:07:40;20.60;99.90
54272;DHT22;40184;53.362;5.216;2022-09-09T10:13:30;20.70;99.90
54272;DHT22;40184;53.362;5.216;2022-09-09T10:18:53;20.80;99.90
54272;DHT22;40184;53.362;5.216;2022-09-09T10:32:45;21.20;99.90
54272;DHT22;40184;53.362;5.216;2022-09-09T10:53:01;20.30;99.90
54272;DHT22;40184;53.362;5.216;2022-09-09T10:55:42;20.70;99.90
54272;DHT22;40184;53.362;5.216;2022-09-09T10:58:20;20.80;99.90
54272;DHT22;40184;53.362;5.216;2022-09-09T11:00:53;20.80;99.90
54272;DHT22;40184;53.362;5.216;2022-09-09T11:03:26;21.00;99.90
54272;DHT22;40184;53.362;5.216;2022-09-09T11:06:05;20.80;99.90
54272;DHT22;40184;53.362;5.216;2022-09-09T11:08:35;20.60;99.90
54272;DHT22;40184;53.362;5.216;2022-09-09T11:13:49;20.10;99.90
54272;DHT22;40184;53.362;5.216;2022-09-09T11:16:42;19.80;99.90
54272;DHT22;40184;53.362;5.216;2022-09-09T11:19:30;19.90;99.90
54272;DHT22;40184;53.362;5.216;2022-09-09T11:22:08;19.60;99.90
54272;DHT22;40184;53.362;5.216;2022-09-09T11:24:49;19.30;99.90
54272;DHT22;40184;53.362;5.216;2022-09-09T11:30:19;19.90;99.90
54272;DHT22;40184;53.362;5.216;2022-09-09T11:36:06;20.40;99.90
54272;DHT22;40184;53.362;5.216;2022-09-09T11:38:46;20.60;99.90
54272;DHT22;40184;53.362;5.216;2022-09-09T11:41:12;20.50;99.90
54272;DHT22;40184;53.362;5.216;2022-09-09T11:43:42;21.00;99.90
54272;DHT22;40184;53.362;5.216;2022-09-09T11:46:08;21.20;99.90
54272;DHT22;40184;53.362;5.216;2022-09-09T11:48:37;21.30;99.90
54272;DHT22;40184;53.362;5.216;2022-09-09T11:56:26;21.30;99.90
54272;DHT22;40184;53.362;5.216;2022-09-09T11:59:02;21.10;99.90
54272;DHT22;40184;53.362;5.216;2022-09-09T12:01:33;21.40;99.90
54272;DHT22;40184;53.362;5.216;2022-09-09T12:06:54;21.30;99.90
54272;DHT22;40184;53.362;5.216;2022-09-09T12:11:52;20.60;99.90
54272;DHT22;40184;53.362;5.216;2022-09-09T12:14:34;20.50;99.90
54272;DHT22;40184;53.362;5.216;2022-09-09T12:17:19;20.60;99.90
54272;DHT22;40184;53.362;5.216;2022-09-09T12:19:46;20.10;99.90
54272;DHT22;40184;53.362;5.216;2022-09-09T12:22:25;20.10;99.90
54272;DHT22;40184;53.362;5.216;2022-09-09T12:25:01;20.30;99.90
54272;DHT22;40184;53.362;5.216;2022-09-09T12:27:36;20.10;99.90
54272;DHT22;40184;53.362;5.216;2022-09-09T12:30:11;20.20;99.90
54272;DHT22;40184;53.362;5.216;2022-09-09T12:32:37;20.00;99.90
54272;DHT22;40184;53.362;5.216;2022-09-09T12:35:22;19.90;99.90
54272;DHT22;40184;53.362;5.216;2022-09-09T12:37:56;20.30;99.90
54272;DHT22;40184;53.362;5.216;2022-09-09T12:40:29;20.30;99.90
54272;DHT22;40184;53.362;5.216;2022-09-09T12:42:55;20.50;99.90
54272;DHT22;40184;53.362;5.216;2022-09-09T12:45:23;20.30;99.90
54272;DHT22;40184;53.362;5.216;2022-09-09T12:47:58;20.50;99.90
54272;DHT22;40184;53.362;5.216;2022-09-09T12:50:29;20.40;99.90
54272;DHT22;40184;53.362;5.216;2022-09-09T12:52:58;20.10;99.90
54272;DHT22;40184;53.362;5.216;2022-09-09T12:55:28;20.30;99.90
54272;DHT22;40184;53.362;5.216;2022-09-09T12:57:56;20.40;99.90
54272;DHT22;40184;53.362;5.216;2022-09-09T13:00:24;20.40;99.90
54272;DHT22;40184;53.362;5.216;2022-09-09T13:02:53;20.60;99.90
54272;DHT22;40184;53.362;5.216;2022-09-09T13:05:24;20.70;99.90
54272;DHT22;40184;53.362;5.216;2022-09-09T13:07:51;20.30;99.90
54272;DHT22;40184;53.362;5.216;2022-09-09T13:10:26;20.70;99.90
54272;DHT22;40184;53.362;5.216;2022-09-09T13:12:53;20.50;99.90
54272;DHT22;40184;53.362;5.216;2022-09-09T13:15:25;20.30;99.90
54272;DHT22;40184;53.362;5.216;2022-09-09T13:17:58;20.60;99.90
54272;DHT22;40184;53.362;5.216;2022-09-09T13:20:26;20.90;99.90
54272;DHT22;40184;53.362;5.216;2022-09-09T13:22:53;21.10;99.90
54272;DHT22;40184;53.362;5.216;2022-09-09T13:25:27;21.10;99.90
54272;DHT22;40184;53.362;5.216;2022-09-09T13:28:21;22.00;99.90
54272;DHT22;40184;53.362;5.216;2022-09-09T13:30:59;22.80;99.90
54272;DHT22;40184;53.362;5.216;2022-09-09T13:33:36;23.10;99.90
54272;DHT22;40184;53.362;5.216;2022-09-09T13:36:11;23.30;99.90
54272;DHT22;40184;53.362;5.216;2022-09-09T13:41:08;24.50;99.90
54272;DHT22;40184;53.362;5.216;2022-09-09T13:43:46;24.80;99.90
54272;DHT22;40184;53.362;5.216;2022-09-09T13:46:36;24.90;99.90
54272;DHT22;40184;53.362;5.216;2022-09-09T13:51:45;23.90;99.90
54272;DHT22;40184;53.362;5.216;2022-09-09T13:54:14;23.00;99.90
54272;DHT22;40184;53.362;5.216;2022-09-09T13:56:40;22.20;99.90
54272;DHT22;40184;53.362;5.216;2022-09-09T13:59:12;22.10;99.90
54272;DHT22;40184;53.362;5.216;2022-09-09T14:01:39;22.10;99.90
54272;DHT22;40184;53.362;5.216;2022-09-09T14:04:05;22.90;99.90
54272;DHT22;40184;53.362;5.216;2022-09-09T14:06:32;23.20;99.90
54272;DHT22;40184;53.362;5.216;2022-09-09T14:08:58;23.10;99.90
54272;DHT22;40184;53.362;5.216;2022-09-09T14:11:24;22.70;99.90
54272;DHT22;40184;53.362;5.216;2022-09-09T14:13:50;22.30;99.90
54272;DHT22;40184;53.362;5.216;2022-09-09T14:16:18;22.10;99.90
54272;DHT22;40184;53.362;5.216;2022-09-09T14:18:45;21.70;99.90
54272;DHT22;40184;53.362;5.216;2022-09-09T14:21:11;21.80;99.90
54272;DHT22;40184;53.362;5.216;2022-09-09T14:23:37;21.90;99.90
54272;DHT22;40184;53.362;5.216;2022-09-09T14:26:07;21.80;99.90
54272;DHT22;40184;53.362;5.216;2022-09-09T14:28:33;21.70;99.90
54272;DHT22;40184;53.362;5.216;2022-09-09T14:31:00;21.70;99.90
54272;DHT22;40184;53.362;5.216;2022-09-09T14:33:26;21.50;99.90
54272;DHT22;40184;53.362;5.216;2022-09-09T14:36:02;21.50;99.90
54272;DHT22;40184;53.362;5.216;2022-09-09T14:38:36;21.40;99.90
54272;DHT22;40184;53.362;5.216;2022-09-09T14:41:06;21.50;99.90
54272;DHT22;40184;53.362;5.216;2022-09-09T14:43:32;21.50;99.90
54272;DHT22;40184;53.362;5.216;2022-09-09T14:46:16;21.40;99.90
54272;DHT22;40184;53.362;5.216;2022-09-09T14:48:43;21.20;99.90
54272;DHT22;40184;53.362;5.216;2022-09-09T14:51:17;21.10;99.90
54272;DHT22;40184;53.362;5.216;2022-09-09T14:53:45;21.00;99.90
54272;DHT22;40184;53.362;5.216;2022-09-09T14:56:17;20.80;99.90
54272;DHT22;40184;53.362;5.216;2022-09-09T14:58:43;20.90;99.90
54272;DHT22;40184;53.362;5.216;2022-09-09T15:01:11;20.50;99.90
54272;DHT22;40184;53.362;5.216;2022-09-09T15:03:38;20.50;99.90
54272;DHT22;40184;53.362;5.216;2022-09-09T15:06:09;20.50;99.90
54272;DHT22;40184;53.362;5.216;2022-09-09T15:08:36;20.20;99.90
54272;DHT22;40184;53.362;5.216;2022-09-09T15:11:04;20.30;99.90
54272;DHT22;40184;53.362;5.216;2022-09-09T15:13:30;20.10;99.90
54272;DHT22;40184;53.362;5.216;2022-09-09T15:15:55;20.10;99.90
54272;DHT22;40184;53.362;5.216;2022-09-09T15:18:21;20.10;99.90
54272;DHT22;40184;53.362;5.216;2022-09-09T15:20:47;20.00;99.90
54272;DHT22;40184;53.362;5.216;2022-09-09T15:23:13;19.70;99.90
54272;DHT22;40184;53.362;5.216;2022-09-09T15:25:53;20.00;99.90
54272;DHT22;40184;53.362;5.216;2022-09-09T15:28:20;20.00;99.90
54272;DHT22;40184;53.362;5.216;2022-09-09T15:30:50;19.60;99.90
54272;DHT22;40184;53.362;5.216;2022-09-09T15:33:17;19.60;99.90
54272;DHT22;40184;53.362;5.216;2022-09-09T15:35:43;19.80;99.90
54272;DHT22;40184;53.362;5.216;2022-09-09T15:38:08;19.50;99.90
54272;DHT22;40184;53.362;5.216;2022-09-09T15:40:34;19.90;99.90
54272;DHT22;40184;53.362;5.216;2022-09-09T15:43:00;19.50;99.90
54272;DHT22;40184;53.362;5.216;2022-09-09T15:45:26;19.50;99.90
54272;DHT22;40184;53.362;5.216;2022-09-09T15:47:52;19.80;99.90
54272;DHT22;40184;53.362;5.216;2022-09-09T15:50:18;19.50;99.90
54272;DHT22;40184;53.362;5.216;2022-09-09T15:52:43;19.60;99.90
54272;DHT22;40184;53.362;5.216;2022-09-09T15:55:10;19.70;99.90
54272;DHT22;40184;53.362;5.216;2022-09-09T15:57:35;19.50;99.90
54272;DHT22;40184;53.362;5.216;2022-09-09T16:00:03;19.50;99.90
54272;DHT22;40184;53.362;5.216;2022-09-09T16:02:29;19.90;99.90
54272;DHT22;40184;53.362;5.216;2022-09-09T16:04:56;19.50;99.90
54272;DHT22;40184;53.362;5.216;2022-09-09T16:07:22;19.60;99.90
54272;DHT22;40184;53.362;5.216;2022-09-09T16:09:48;19.70;99.90
54272;DHT22;40184;53.362;5.216;2022-09-09T16:12:16;19.80;99.90
54272;DHT22;40184;53.362;5.216;2022-09-09T16:14:42;19.30;99.90
54272;DHT22;40184;53.362;5.216;2022-09-09T16:17:08;19.70;99.90
54272;DHT22;40184;53.362;5.216;2022-09-09T16:19:34;19.60;99.90
54272;DHT22;40184;53.362;5.216;2022-09-09T16:22:00;19.30;99.90
54272;DHT22;40184;53.362;5.216;2022-09-09T16:24:26;19.30;99.90
54272;DHT22;40184;53.362;5.216;2022-09-09T16:26:53;19.20;99.90
54272;DHT22;40184;53.362;5.216;2022-09-09T16:29:20;19.60;99.90
54272;DHT22;40184;53.362;5.216;2022-09-09T16:31:47;19.10;99.90
54272;DHT22;40184;53.362;5.216;2022-09-09T16:34:14;19.60;99.90
54272;DHT22;40184;53.362;5.216;2022-09-09T16:36:41;19.20;99.90
54272;DHT22;40184;53.362;5.216;2022-09-09T16:39:10;19.40;99.90
54272;DHT22;40184;53.362;5.216;2022-09-09T16:41:37;19.30;99.90
54272;DHT22;40184;53.362;5.216;2022-09-09T16:44:07;19.30;99.90
54272;DHT22;40184;53.362;5.216;2022-09-09T16:46:40;18.90;99.90
54272;DHT22;40184;53.362;5.216;2022-09-09T16:49:12;18.90;99.90
54272;DHT22;40184;53.362;5.216;2022-09-09T16:51:42;18.90;99.90
54272;DHT22;40184;53.362;5.216;2022-09-09T16:54:09;18.90;99.90
54272;DHT22;40184;53.362;5.216;2022-09-09T16:56:38;19.30;99.90
54272;DHT22;40184;53.362;5.216;2022-09-09T16:59:11;19.20;99.90
54272;DHT22;40184;53.362;5.216;2022-09-09T17:01:40;19.10;99.90
54272;DHT22;40184;53.362;5.216;2022-09-09T17:04:21;19.00;99.90
54272;DHT22;40184;53.362;5.216;2022-09-09T17:06:50;19.20;99.90
54272;DHT22;40184;53.362;5.216;2022-09-09T17:09:17;19.20;99.90
54272;DHT22;40184;53.362;5.216;2022-09-09T17:11:43;18.70;99.90
54272;DHT22;40184;53.362;5.216;2022-09-09T17:14:14;18.70;99.90
54272;DHT22;40184;53.362;5.216;2022-09-09T17:16:40;19.00;99.90
54272;DHT22;40184;53.362;5.216;2022-09-09T17:19:06;18.90;99.90
54272;DHT22;40184;53.362;5.216;2022-09-09T17:21:33;19.10;99.90
54272;DHT22;40184;53.362;5.216;2022-09-09T17:23:59;18.60;99.90
54272;DHT22;40184;53.362;5.216;2022-09-09T17:26:28;19.00;99.90
54272;DHT22;40184;53.362;5.216;2022-09-09T17:28:55;19.00;99.90
54272;DHT22;40184;53.362;5.216;2022-09-09T17:31:21;18.50;99.90
54272;DHT22;40184;53.362;5.216;2022-09-09T17:33:50;18.80;99.90
54272;DHT22;40184;53.362;5.216;2022-09-09T17:36:29;18.70;99.90
54272;DHT22;40184;53.362;5.216;2022-09-09T17:38:55;18.50;99.90
54272;DHT22;40184;53.362;5.216;2022-09-09T17:41:32;18.80;99.90
54272;DHT22;40184;53.362;5.216;2022-09-09T17:43:59;18.60;99.90
54272;DHT22;40184;53.362;5.216;2022-09-09T17:46:33;18.40;99.90
54272;DHT22;40184;53.362;5.216;2022-09-09T17:49:02;18.70;99.90
54272;DHT22;40184;53.362;5.216;2022-09-09T17:51:30;18.40;99.90
54272;DHT22;40184;53.362;5.216;2022-09-09T17:53:59;18.30;99.90